Time;durP1;ratioP1;P1;durP2;ratioP2;P2;SDS_P1;SDS_P2;PMS_P1;PMS_P2;Temp;Humidity;BMP_temperature;BMP_pressure;BME280_temperature;BME280_humidity;BME280_pressure;Samples;Min_cycle;Max_cycle;Signal;HPM_P1;HPM_P2
2022/11/27 00:01:19;;;;;;;25.70;5.25;;;22.90;27.50;;;;;;5021301;28;20082;-64
2022/11/27 00:03:46;;;;;;;22.02;5.60;;;22.70;28.30;;;;;;5017392;28;20546;-66
2022/11/27 00:06:18;;;;;;;35.30;7.47;;;22.50;28.70;;;;;;5015094;28;20168;-66
2022/11/27 00:08:45;;;;;;;25.23;7.38;;;22.50;28.70;;;;;;5023055;28;20527;-64
2022/11/27 00:11:17;;;;;;;48.88;9.13;;;22.40;28.70;;;;;;5020982;28;20534;-66
2022/11/27 00:13:44;;;;;;;30.33;7.28;;;22.30;28.90;;;;;;5019361;28;20105;-64
2022/11/27 00:16:12;;;;;;;35.83;6.68;;;22.10;29.70;;;;;;5025330;28;20510;-64
2022/11/27 00:18:39;;;;;;;33.97;6.70;;;22.00;30.40;;;;;;5018957;28;20103;-67
2022/11/27 00:21:10;;;;;;;41.10;6.50;;;21.80;31.20;;;;;;5018495;28;20173;-65
2022/11/27 00:23:37;;;;;;;32.58;6.53;;;21.70;31.50;;;;;;5019348;28;20169;-66
2022/11/27 00:26:05;;;;;;;33.55;7.25;;;21.50;31.50;;;;;;5017177;28;20073;-64
2022/11/27 00:28:32;;;;;;;29.08;5.95;;;21.30;31.60;;;;;;5021862;28;20411;-64
2022/11/27 00:31:00;;;;;;;37.03;6.97;;;21.10;31.80;;;;;;5021382;28;20090;-66
2022/11/27 00:33:27;;;;;;;37.33;6.43;;;20.90;32.30;;;;;;5019107;28;20439;-64
2022/11/27 00:35:53;;;;;;;34.78;6.45;;;20.80;32.90;;;;;;5016008;28;20490;-65
2022/11/27 00:38:20;;;;;;;36.35;6.15;;;20.70;34.30;;;;;;5019383;28;20125;-66
2022/11/27 00:40:47;;;;;;;51.13;14.75;;;20.50;34.60;;;;;;5014839;28;20077;-65
2022/11/27 00:43:14;;;;;;;67.40;30.95;;;20.40;33.90;;;;;;5017282;28;20538;-65
2022/11/27 00:45:40;;;;;;;81.38;35.58;;;20.20;34.10;;;;;;5021495;28;20140;-65
2022/11/27 00:48:06;;;;;;;75.63;33.47;;;20.10;34.90;;;;;;5023597;28;20082;-65
2022/11/27 00:50:33;;;;;;;60.47;27.35;;;20.00;35.40;;;;;;5017992;28;20089;-64
2022/11/27 00:53:00;;;;;;;84.60;28.63;;;19.80;34.30;;;;;;5015474;28;20066;-65
2022/11/27 00:55:26;;;;;;;71.93;26.70;;;19.70;34.40;;;;;;5018436;28;20528;-64
2022/11/27 00:57:53;;;;;;;68.60;24.02;;;19.60;34.40;;;;;;5018283;28;20153;-64
2022/11/27 01:00:19;;;;;;;66.63;24.60;;;19.40;35.00;;;;;;5021343;28;20131;-64
2022/11/27 01:02:46;;;;;;;60.97;20.90;;;19.40;35.20;;;;;;5022337;28;20090;-66
2022/11/27 01:05:12;;;;;;;66.78;21.25;;;19.70;40.20;;;;;;5014125;28;20109;-64
2022/11/27 01:07:39;;;;;;;64.63;21.25;;;19.20;37.10;;;;;;5019138;28;20200;-65
2022/11/27 01:10:06;;;;;;;71.43;23.83;;;19.10;37.30;;;;;;5015874;28;20596;-66
2022/11/27 01:12:32;;;;;;;79.80;24.85;;;19.00;37.20;;;;;;5018458;28;20080;-64
2022/11/27 01:14:58;;;;;;;74.40;22.40;;;18.90;37.00;;;;;;5022036;28;20069;-65
2022/11/27 01:17:25;;;;;;;86.45;18.15;;;18.80;37.60;;;;;;5020534;28;20066;-67
2022/11/27 01:19:51;;;;;;;69.38;16.38;;;18.80;37.50;;;;;;5021086;28;20074;-62
2022/11/27 01:22:18;;;;;;;55.70;17.20;;;18.70;37.50;;;;;;5021934;28;20085;-62
2022/11/27 01:24:44;;;;;;;61.28;19.50;;;18.60;37.50;;;;;;5023034;28;20581;-62
2022/11/27 01:27:10;;;;;;;69.80;17.77;;;18.50;37.80;;;;;;5016176;28;20074;-62
2022/11/27 01:29:37;;;;;;;68.13;18.10;;;18.50;38.20;;;;;;5014207;28;20144;-63
2022/11/27 01:32:03;;;;;;;65.03;17.42;;;18.40;38.50;;;;;;5017075;28;20045;-63
2022/11/27 01:34:30;;;;;;;69.88;18.80;;;18.30;38.50;;;;;;5001411;28;20138;-62
2022/11/27 01:36:56;;;;;;;75.63;18.42;;;18.30;39.50;;;;;;5015331;28;20133;-62
2022/11/27 01:39:29;;;;;;;66.15;19.42;;;18.20;39.80;;;;;;5016757;28;20405;-63
2022/11/27 01:41:55;;;;;;;58.05;20.00;;;18.20;58.90;;;;;;5016998;28;20083;-63
2022/11/27 01:44:25;;;;;;;71.13;20.75;;;18.00;40.50;;;;;;5015872;28;20498;-63
2022/11/27 01:46:55;;;;;;;86.03;24.35;;;17.80;52.50;;;;;;5019077;28;20032;-62
2022/11/27 01:49:29;;;;;;;88.85;26.45;;;17.60;66.80;;;;;;5016234;28;20097;-63
2022/11/27 01:52:15;;;;;;;131.13;45.17;;;17.80;41.30;;;;;;5021804;28;20097;-64
2022/11/27 01:54:48;;;;;;;93.60;32.95;;;17.50;60.10;;;;;;5018697;28;20107;-65
2022/11/27 01:57:49;;;;;;;94.53;31.73;;;;;;;;;;5021973;28;20614;-63
2022/11/27 02:00:17;;;;;;;88.68;28.30;;;17.60;54.20;;;;;;4940954;29;20039;-63
2022/11/27 02:02:44;;;;;;;100.15;28.63;;;17.50;42.50;;;;;;4940362;29;20091;-63
2022/11/27 02:05:16;;;;;;;90.47;28.55;;;17.40;62.80;;;;;;4943293;29;20117;-64
2022/11/27 02:07:44;;;;;;;70.45;27.13;;;17.30;43.00;;;;;;4944458;28;20182;-63
2022/11/27 02:10:11;;;;;;;111.65;31.02;;;17.10;62.90;;;;;;4945172;29;20057;-63
2022/11/27 02:13:05;;;;;;;101.05;30.77;;;17.30;60.00;;;;;;4941504;29;20033;-64
2022/11/27 02:15:58;;;;;;;86.55;31.20;;;17.20;70.50;;;;;;4942115;29;20502;-62
2022/11/27 02:18:38;;;;;;;90.60;30.83;;;17.30;69.60;;;;;;4944968;29;20114;-63
2022/11/27 02:21:07;;;;;;;91.95;30.50;;;17.10;68.80;;;;;;4947105;29;20133;-64
2022/11/27 02:24:07;;;;;;;101.05;31.75;;;17.00;68.60;;;;;;4938527;29;20103;-63
2022/11/27 02:27:05;;;;;;;93.03;31.23;;;16.70;69.00;;;;;;4927741;29;20052;-63
2022/11/27 02:29:33;;;;;;;111.35;38.20;;;17.00;46.50;;;;;;4938688;29;20087;-64
2022/11/27 02:32:20;;;;;;;106.20;36.80;;;16.90;46.00;;;;;;4945676;29;20106;-62
2022/11/27 02:35:09;;;;;;;120.18;41.30;;;16.70;75.60;;;;;;4999216;28;20044;-63
2022/11/27 02:37:50;;;;;;;126.45;45.65;;;16.70;45.90;;;;;;5018889;28;20503;-63
2022/11/27 02:40:22;;;;;;;116.65;46.13;;;16.30;46.20;;;;;;5020712;28;20025;-63
2022/11/27 02:42:54;;;;;;;115.00;44.92;;;16.70;51.10;;;;;;5021322;28;20165;-65
2022/11/27 02:45:36;;;;;;;114.00;43.78;;;16.50;47.10;;;;;;5022819;28;20076;-64
2022/11/27 02:48:03;;;;;;;136.77;39.95;;;16.60;54.10;;;;;;5023154;28;20040;-62
2022/11/27 02:50:33;;;;;;;126.10;38.30;;;16.40;76.90;;;;;;5023217;28;20026;-63
2022/11/27 02:53:05;;;;;;;131.13;36.65;;;16.50;79.70;;;;;;5016376;28;20041;-64
2022/11/27 02:55:33;;;;;;;133.57;41.55;;;16.40;46.10;;;;;;5019465;28;20389;-63
2022/11/27 02:58:03;;;;;;;109.50;34.67;;;16.30;59.00;;;;;;5017139;28;20025;-63
2022/11/27 03:00:30;;;;;;;129.65;37.55;;;16.30;46.70;;;;;;5022312;28;20021;-64
2022/11/27 03:03:01;;;;;;;113.25;34.88;;;16.30;47.20;;;;;;5019182;28;20551;-61
2022/11/27 03:05:32;;;;;;;110.95;33.75;;;16.30;47.60;;;;;;5017547;28;20094;-62
2022/11/27 03:08:06;;;;;;;132.30;36.80;;;16.20;47.70;;;;;;5024927;28;20130;-62
2022/11/27 03:10:51;;;;;;;134.20;36.67;;;16.20;48.20;;;;;;5022255;28;20110;-65
2022/11/27 03:13:18;;;;;;;144.98;55.08;;;16.10;48.10;;;;;;5018831;28;20085;-61
2022/11/27 03:16:13;;;;;;;157.35;69.20;;;16.00;48.40;;;;;;5026212;28;20105;-62
2022/11/27 03:19:01;;;;;;;171.98;76.07;;;15.90;48.60;;;;;;5020667;28;20462;-62
2022/11/27 03:21:51;;;;;;;179.00;75.38;;;15.80;49.00;;;;;;5018596;28;20851;-65
2022/11/27 03:24:18;;;;;;;151.13;60.25;;;15.80;49.20;;;;;;5021845;28;20074;-67
2022/11/27 03:26:45;;;;;;;145.27;53.45;;;15.80;49.60;;;;;;5020002;28;20062;-66
2022/11/27 03:29:18;;;;;;;144.98;54.90;;;15.90;49.80;;;;;;5010227;28;20256;-65
2022/11/27 03:31:44;;;;;;;121.47;52.67;;;15.80;50.00;;;;;;5022039;28;20557;-64
2022/11/27 03:34:11;;;;;;;129.95;55.40;;;15.80;49.70;;;;;;5017974;28;20070;-65
2022/11/27 03:36:37;;;;;;;138.93;62.72;;;15.80;49.60;;;;;;5023404;28;20069;-65
2022/11/27 03:39:03;;;;;;;;;;;15.80;49.80;;;;;;5023973;28;20068;-66
2022/11/27 03:41:50;;;;;;;154.68;54.60;;;15.80;49.70;;;;;;5018489;28;20378;-65
2022/11/27 03:44:50;;;;;;;129.85;51.17;;;15.80;49.80;;;;;;5013078;28;20101;-64
2022/11/27 03:47:25;;;;;;;138.25;46.30;;;15.60;49.70;;;;;;5018476;28;20036;-65
2022/11/27 03:50:09;;;;;;;134.13;44.80;;;15.60;50.10;;;;;;5014827;28;20075;-64
2022/11/27 03:52:40;;;;;;;169.70;55.88;;;15.50;49.90;;;;;;5023215;28;20085;-65
2022/11/27 03:55:40;;;;;;;164.95;57.60;;;15.50;49.90;;;;;;5020890;28;20082;-64
2022/11/27 03:58:27;;;;;;;144.15;42.58;;;15.50;50.10;;;;;;5014763;28;20075;-64
2022/11/27 04:00:55;;;;;;;137.13;41.17;;;15.50;50.00;;;;;;5020781;28;20565;-66
2022/11/27 04:03:27;;;;;;;143.15;41.60;;;15.50;50.30;;;;;;5024233;28;20126;-66
2022/11/27 04:05:54;;;;;;;152.63;43.05;;;15.40;50.90;;;;;;5020691;28;20113;-65
2022/11/27 04:08:21;;;;;;;141.57;43.72;;;15.40;51.10;;;;;;5020527;28;20582;-65
2022/11/27 04:10:47;;;;;;;168.40;46.50;;;15.40;50.90;;;;;;5016867;28;20097;-67
2022/11/27 04:13:14;;;;;;;;;;;15.30;51.40;;;;;;5017048;28;20078;-65
2022/11/27 04:15:40;;;;;;;135.67;44.23;;;15.30;51.50;;;;;;5015704;28;19970;-66
2022/11/27 04:18:07;;;;;;;133.98;41.45;;;15.20;52.10;;;;;;5017490;28;20396;-67
2022/11/27 04:20:33;;;;;;;145.35;42.85;;;15.20;52.30;;;;;;5020965;28;20081;-67
2022/11/27 04:23:00;;;;;;;;;;;15.10;52.50;;;;;;5021936;28;20081;-64
2022/11/27 04:25:26;;;;;;;145.60;44.83;;;15.00;51.60;;;;;;5019943;28;19965;-65
2022/11/27 04:27:53;;;;;;;141.30;45.78;;;14.80;51.90;;;;;;5021780;28;20093;-66
2022/11/27 04:30:19;;;;;;;142.57;47.33;;;14.80;52.10;;;;;;5019974;28;20176;-67
2022/11/27 04:32:46;;;;;;;152.43;47.95;;;14.70;52.00;;;;;;5017107;28;20074;-64
2022/11/27 04:35:12;;;;;;;;;;;14.70;52.20;;;;;;5020070;28;20511;-66
2022/11/27 04:37:38;;;;;;;145.95;42.10;;;14.70;52.00;;;;;;5021340;28;20040;-66
2022/11/27 04:40:06;;;;;;;118.93;40.38;;;14.70;51.40;;;;;;5017908;28;20070;-65
2022/11/27 04:42:32;;;;;;;144.55;39.55;;;14.80;51.30;;;;;;5019875;28;20093;-68
2022/11/27 04:44:58;;;;;;;;;;;14.80;51.10;;;;;;5017823;28;20077;-66
2022/11/27 04:47:24;;;;;;;124.78;35.67;;;14.90;50.60;;;;;;5020930;28;19973;-65
2022/11/27 04:49:50;;;;;;;;;;;14.90;51.60;;;;;;5020611;28;20109;-64
2022/11/27 04:52:17;;;;;;;115.78;29.77;;;14.90;51.40;;;;;;5021295;28;20415;-67
2022/11/27 04:54:43;;;;;;;;;;;14.90;51.40;;;;;;5022733;28;20074;-64
2022/11/27 04:57:09;;;;;;;106.13;26.65;;;14.80;51.20;;;;;;5022271;28;20501;-64
2022/11/27 04:59:35;;;;;;;;;;;14.70;51.30;;;;;;5018626;28;20438;-65
2022/11/27 05:02:01;;;;;;;109.57;27.63;;;14.60;52.30;;;;;;5015612;28;19966;-64
2022/11/27 05:04:27;;;;;;;;;;;14.60;52.50;;;;;;5022117;28;20161;-66
2022/11/27 05:06:54;;;;;;;82.70;24.98;;;14.60;52.00;;;;;;5021260;28;19988;-68
2022/11/27 05:09:20;;;;;;;;;;;14.50;51.90;;;;;;5022450;28;20558;-66
2022/11/27 05:11:46;;;;;;;97.95;20.58;;;14.50;51.60;;;;;;5015642;28;20057;-67
2022/11/27 05:14:16;;;;;;;;;;;14.40;51.80;;;;;;5017988;28;20067;-67
2022/11/27 05:16:53;;;;;;;70.68;18.83;;;14.40;52.30;;;;;;5018990;28;19958;-67
2022/11/27 05:19:21;;;;;;;;;;;14.40;51.80;;;;;;5017439;28;20094;-67
2022/11/27 05:21:49;;;;;;;88.20;21.25;;;14.40;51.80;;;;;;5027021;28;20052;-64
2022/11/27 05:24:17;;;;;;;102.00;23.17;;;14.30;52.20;;;;;;5020974;28;20085;-65
2022/11/27 05:26:44;;;;;;;89.18;20.17;;;14.20;52.10;;;;;;5019220;28;20618;-64
2022/11/27 05:29:11;;;;;;;89.18;23.85;;;14.30;52.30;;;;;;5019517;28;20082;-65
2022/11/27 05:31:38;;;;;;;78.43;23.55;;;14.30;52.20;;;;;;5017478;28;21392;-66
2022/11/27 05:34:05;;;;;;;73.70;22.05;;;14.30;52.00;;;;;;5015683;28;20423;-65
2022/11/27 05:36:33;;;;;;;74.15;22.27;;;14.20;52.50;;;;;;5020367;28;20137;-68
2022/11/27 05:39:00;;;;;;;78.00;22.30;;;14.20;52.50;;;;;;5018167;28;20438;-67
2022/11/27 05:41:27;;;;;;;73.18;21.83;;;14.20;52.30;;;;;;5016961;28;20164;-66
2022/11/27 05:43:53;;;;;;;78.18;18.52;;;14.20;52.20;;;;;;5018677;28;20075;-67
2022/11/27 05:46:20;;;;;;;;;;;14.20;52.60;;;;;;5023460;28;20554;-63
2022/11/27 05:48:47;;;;;;;68.05;17.15;;;14.10;52.60;;;;;;5021523;28;20468;-67
2022/11/27 05:51:14;;;;;;;58.25;14.75;;;14.10;52.50;;;;;;5022757;28;20101;-66
2022/11/27 05:53:41;;;;;;;51.47;13.15;;;14.10;52.60;;;;;;5022058;28;20101;-65
2022/11/27 05:56:13;;;;;;;59.88;14.05;;;14.00;52.90;;;;;;5022383;28;20533;-67
2022/11/27 05:58:41;;;;;;;50.30;14.85;;;14.10;53.20;;;;;;5023616;28;20113;-65
2022/11/27 06:01:08;;;;;;;61.17;14.90;;;14.10;53.00;;;;;;5023270;28;20120;-65
2022/11/27 06:03:37;;;;;;;52.20;13.43;;;14.00;53.30;;;;;;5019647;28;20482;-66
2022/11/27 06:06:14;;;;;;;54.20;13.23;;;14.00;53.30;;;;;;5019054;28;20440;-66
2022/11/27 06:08:41;;;;;;;46.30;14.88;;;13.90;53.50;;;;;;5022379;28;20416;-66
2022/11/27 06:11:10;;;;;;;52.58;13.75;;;13.90;54.00;;;;;;5019138;28;20144;-67
2022/11/27 06:13:37;;;;;;;38.45;11.18;;;13.70;54.00;;;;;;5024268;28;20090;-65
2022/11/27 06:16:08;;;;;;;52.92;11.30;;;13.70;54.10;;;;;;5024044;28;20076;-66
2022/11/27 06:18:35;;;;;;;53.65;9.40;;;13.70;54.20;;;;;;5019808;28;20082;-67
2022/11/27 06:21:05;;;;;;;52.60;10.15;;;13.70;54.10;;;;;;5025708;28;20593;-64
2022/11/27 06:23:32;;;;;;;48.55;10.23;;;13.70;54.00;;;;;;5025992;28;20077;-66
2022/11/27 06:25:58;;;;;;;;;;;13.70;54.00;;;;;;5021066;28;20078;-66
2022/11/27 06:28:24;;;;;;;42.80;10.63;;;13.70;54.10;;;;;;5022946;28;19957;-65
2022/11/27 06:30:50;;;;;;;;;;;13.70;54.60;;;;;;5020047;28;20094;-70
2022/11/27 06:33:17;;;;;;;52.83;12.07;;;13.70;54.50;;;;;;5004552;28;20037;-71
2022/11/27 06:35:43;;;;;;;;;;;13.80;54.90;;;;;;5021767;28;20071;-63
2022/11/27 06:38:09;;;;;;;51.17;11.00;;;13.60;55.60;;;;;;5012166;28;19962;-64
2022/11/27 06:40:35;;;;;;;36.70;11.25;;;13.50;55.70;;;;;;5014937;28;20077;-63
2022/11/27 06:43:01;;;;;;;;;;;13.40;55.60;;;;;;5018728;28;20085;-62
2022/11/27 06:45:28;;;;;;;58.28;11.32;;;13.50;55.70;;;;;;5012179;28;19958;-66
2022/11/27 06:47:54;;;;;;;;;;;13.50;56.10;;;;;;5013834;28;20075;-63
2022/11/27 06:50:20;;;;;;;45.85;11.52;;;13.50;56.20;;;;;;5012317;28;19978;-61
2022/11/27 06:52:46;;;;;;;47.83;12.57;;;13.50;55.70;;;;;;5013537;28;20074;-65
2022/11/27 06:55:12;;;;;;;;;;;13.50;55.70;;;;;;5013404;28;20153;-64
2022/11/27 06:57:39;;;;;;;52.72;12.55;;;13.50;55.80;;;;;;5013314;28;20012;-66
2022/11/27 07:00:05;;;;;;;;;;;13.50;56.80;;;;;;5022822;28;20072;-62
2022/11/27 07:02:32;;;;;;;46.00;11.85;;;13.50;56.30;;;;;;5018080;28;19958;-66
2022/11/27 07:04:58;;;;;;;;;;;13.50;56.50;;;;;;5029702;28;20563;-62
2022/11/27 07:07:24;;;;;;;60.40;13.50;;;13.50;56.80;;;;;;4997336;28;19989;-65
2022/11/27 07:09:50;;;;;;;;;;;13.40;55.90;;;;;;5021262;28;20081;-64
2022/11/27 07:12:16;;;;;;;40.83;14.27;;;13.40;56.00;;;;;;5017421;28;20341;-66
2022/11/27 07:14:42;;;;;;;;;;;13.40;56.30;;;;;;5019303;28;20450;-63
2022/11/27 07:17:09;;;;;;;72.57;17.25;;;13.30;56.50;;;;;;5023471;28;20435;-64
2022/11/27 07:19:35;;;;;;;;;;;13.30;56.90;;;;;;5021143;28;20086;-65
2022/11/27 07:22:01;;;;;;;67.35;17.63;;;13.30;56.90;;;;;;5014135;28;19966;-64
2022/11/27 07:24:28;;;;;;;64.90;16.90;;;13.20;57.50;;;;;;5023812;28;20070;-64
2022/11/27 07:26:54;;;;;;;;;;;13.20;57.60;;;;;;5017247;28;20089;-62
2022/11/27 07:29:20;;;;;;;64.30;19.25;;;13.20;57.20;;;;;;5011196;28;19958;-63
2022/11/27 07:31:46;;;;;;;;;;;13.20;56.80;;;;;;5011764;28;20423;-65
2022/11/27 07:34:13;;;;;;;78.72;19.73;;;13.20;56.80;;;;;;5011397;28;20308;-64
2022/11/27 07:36:39;;;;;;;;;;;13.10;57.20;;;;;;5011806;28;20106;-62
2022/11/27 07:39:05;;;;;;;95.95;22.27;;;13.10;56.70;;;;;;5011420;28;20449;-65
2022/11/27 07:41:31;;;;;;;86.97;22.85;;;13.00;57.20;;;;;;5011484;28;20081;-65
2022/11/27 07:43:57;;;;;;;;;;;13.00;57.10;;;;;;5011068;28;20161;-65
2022/11/27 07:46:24;;;;;;;91.53;25.65;;;12.90;56.90;;;;;;5011188;28;19965;-64
2022/11/27 07:48:51;;;;;;;95.97;25.73;;;12.90;56.80;;;;;;5010836;28;20086;-62
2022/11/27 07:51:20;;;;;;;85.55;25.42;;;12.90;56.80;;;;;;5012315;28;20601;-62
2022/11/27 07:53:47;;;;;;;99.03;26.40;;;12.90;57.30;;;;;;5022834;28;20430;-63
2022/11/27 07:56:15;;;;;;;91.63;24.83;;;12.80;57.30;;;;;;5012771;28;20089;-63
2022/11/27 07:58:41;;;;;;;115.80;24.73;;;12.80;57.30;;;;;;5022223;28;20078;-62
2022/11/27 08:01:08;;;;;;;;;;;12.70;57.70;;;;;;5021255;28;20095;-64
2022/11/27 08:03:37;;;;;;;97.10;24.63;;;12.60;57.50;;;;;;5014041;28;20012;-63
2022/11/27 08:06:04;;;;;;;100.55;25.85;;;12.60;57.70;;;;;;5014916;28;20189;-63
2022/11/27 08:08:32;;;;;;;91.82;25.58;;;12.60;58.10;;;;;;5014165;28;20070;-63
2022/11/27 08:10:58;;;;;;;123.80;26.80;;;12.70;57.80;;;;;;5013271;28;20173;-63
2022/11/27 08:13:24;;;;;;;;;;;12.70;57.30;;;;;;5014408;28;20087;-60
2022/11/27 08:15:51;;;;;;;106.75;26.55;;;12.70;57.80;;;;;;5014330;28;19957;-61
2022/11/27 08:18:17;;;;;;;;;;;12.60;57.90;;;;;;5017086;28;20067;-65
2022/11/27 08:20:43;;;;;;;116.40;29.13;;;12.40;57.90;;;;;;5014357;28;19987;-63
2022/11/27 08:23:09;;;;;;;;;;;12.40;58.40;;;;;;5010720;28;20078;-62
2022/11/27 08:25:37;;;;;;;120.15;29.42;;;12.40;57.90;;;;;;5015134;28;20023;-61
2022/11/27 08:28:03;;;;;;;103.13;28.90;;;12.40;57.70;;;;;;5016341;28;20447;-62
2022/11/27 08:30:30;;;;;;;118.22;28.52;;;12.40;57.50;;;;;;5013364;28;20450;-65
2022/11/27 08:32:56;;;;;;;;;;;12.40;57.40;;;;;;5020580;28;20513;-64
2022/11/27 08:35:22;;;;;;;125.85;28.20;;;12.30;57.40;;;;;;5025421;28;19958;-65
2022/11/27 08:37:48;;;;;;;;;;;12.40;57.70;;;;;;5010959;28;20162;-64
2022/11/27 08:40:15;;;;;;;122.97;28.10;;;12.40;58.00;;;;;;5028083;28;20341;-62
2022/11/27 08:42:41;;;;;;;104.72;28.55;;;12.50;57.30;;;;;;5014542;28;20128;-61
2022/11/27 08:45:07;;;;;;;;;;;12.40;57.10;;;;;;5015477;28;20062;-63
2022/11/27 08:47:34;;;;;;;142.38;28.77;;;12.40;57.70;;;;;;5020151;28;20052;-64
2022/11/27 08:50:00;;;;;;;;;;;12.30;57.20;;;;;;5021703;28;20089;-64
2022/11/27 08:52:26;;;;;;;110.07;28.13;;;12.30;57.40;;;;;;5011300;28;19966;-61
2022/11/27 08:54:52;;;;;;;;;;;12.30;57.70;;;;;;5009931;28;20062;-64
2022/11/27 08:57:18;;;;;;;95.45;26.38;;;12.40;57.30;;;;;;5010278;28;19962;-63
2022/11/27 08:59:44;;;;;;;;;;;12.40;57.60;;;;;;5013323;28;20592;-66
2022/11/27 09:02:12;;;;;;;108.78;28.10;;;12.40;57.30;;;;;;5017330;28;19958;-64
2022/11/27 09:04:38;;;;;;;107.30;26.58;;;12.30;57.50;;;;;;5020679;28;20097;-66
2022/11/27 09:07:04;;;;;;;;;;;12.30;57.30;;;;;;5021105;28;20233;-65
2022/11/27 09:09:31;;;;;;;102.32;27.80;;;12.30;58.10;;;;;;5009723;28;20073;-61
2022/11/27 09:11:57;;;;;;;122.13;29.95;;;12.30;57.60;;;;;;5008975;28;20110;-64
2022/11/27 09:14:23;;;;;;;;;;;12.20;58.00;;;;;;5017336;28;20079;-64
2022/11/27 09:16:50;;;;;;;102.95;27.92;;;12.20;57.90;;;;;;5020283;28;19961;-65
2022/11/27 09:19:17;;;;;;;109.78;27.08;;;12.10;58.30;;;;;;5025439;28;20089;-63
2022/11/27 09:21:43;;;;;;;105.03;27.80;;;12.20;58.10;;;;;;5022472;28;20593;-64
2022/11/27 09:24:09;;;;;;;;;;;12.10;57.90;;;;;;5027276;28;20158;-63
2022/11/27 09:26:35;;;;;;;97.03;29.30;;;12.10;58.40;;;;;;5019754;28;20489;-64
2022/11/27 09:29:02;;;;;;;118.75;28.50;;;12.20;58.50;;;;;;5026366;28;20081;-60
2022/11/27 09:31:29;;;;;;;104.20;26.80;;;12.10;58.80;;;;;;5013179;28;20098;-65
2022/11/27 09:33:56;;;;;;;;;;;12.10;58.90;;;;;;5032677;28;20435;-63
2022/11/27 09:36:24;;;;;;;;;;;12.10;58.60;;;;;;5014055;28;19958;-61
2022/11/27 09:38:50;;;;;;;;;;;12.10;58.80;;;;;;5022002;28;20032;-63
2022/11/27 09:41:32;;;;;;;97.90;29.08;;;12.10;59.20;;;;;;5019320;28;19958;-61
2022/11/27 09:44:05;;;;;;;103.55;27.08;;;12.00;60.00;;;;;;5012360;28;20088;-66
2022/11/27 09:46:37;;;;;;;103.05;27.90;;;12.00;59.90;;;;;;5015587;28;20069;-64
2022/11/27 09:49:08;;;;;;;104.30;28.65;;;11.80;60.00;;;;;;5015838;28;20093;-63
2022/11/27 09:52:11;;;;;;;101.70;27.75;;;11.80;59.70;;;;;;5017688;28;20080;-63
2022/11/27 09:54:53;;;;;;;96.28;27.60;;;11.80;59.70;;;;;;5006515;28;20082;-66
2022/11/27 09:57:28;;;;;;;99.20;27.42;;;11.80;59.90;;;;;;5017571;28;20208;-62
2022/11/27 09:59:57;;;;;;;109.80;28.30;;;11.70;60.50;;;;;;5014441;28;20085;-65
2022/11/27 10:02:34;;;;;;;121.05;28.98;;;11.70;59.70;;;;;;5016616;28;20077;-65
2022/11/27 10:05:04;;;;;;;100.15;26.50;;;11.60;60.20;;;;;;5012567;28;20164;-65
2022/11/27 10:07:37;;;;;;;109.28;30.20;;;11.70;60.50;;;;;;5012528;28;20110;-63
2022/11/27 10:10:24;;;;;;;115.60;28.83;;;11.70;60.60;;;;;;5012575;28;20173;-66
2022/11/27 10:13:11;;;;;;;128.05;32.92;;;11.70;60.00;;;;;;5012374;28;20078;-62
2022/11/27 10:15:57;;;;;;;140.23;39.42;;;11.80;61.10;;;;;;5018037;28;20086;-61
2022/11/27 10:18:41;;;;;;;134.60;33.30;;;11.70;61.00;;;;;;5031760;28;20161;-65
2022/11/27 10:21:29;;;;;;;115.63;30.30;;;11.60;61.80;;;;;;5018037;28;20132;-61
2022/11/27 10:24:13;;;;;;;119.47;32.47;;;11.50;61.90;;;;;;5016590;28;20070;-65
2022/11/27 10:26:48;;;;;;;128.00;32.95;;;11.30;61.70;;;;;;4996600;28;20458;-63
2022/11/27 10:29:40;;;;;;;111.25;30.95;;;11.30;62.10;;;;;;5011059;28;20454;-65
2022/11/27 10:32:20;;;;;;;102.82;31.50;;;11.30;61.70;;;;;;5012582;28;20568;-62
2022/11/27 10:35:06;;;;;;;113.45;29.73;;;11.30;61.80;;;;;;5012351;28;20074;-64
2022/11/27 10:37:47;;;;;;;120.17;33.00;;;11.40;62.00;;;;;;5012185;28;20404;-66
2022/11/27 10:40:13;;;;;;;106.90;31.42;;;11.40;61.70;;;;;;5012307;28;20128;-64
2022/11/27 10:42:58;;;;;;;;;;;11.40;61.30;;;;;;5012286;28;20114;-64
2022/11/27 10:45:36;;;;;;;103.93;29.48;;;11.30;62.20;;;;;;5012346;28;19958;-64
2022/11/27 10:48:03;;;;;;;110.10;32.88;;;11.40;61.50;;;;;;5012142;28;20108;-64
2022/11/27 10:50:29;;;;;;;110.00;29.05;;;11.30;61.30;;;;;;5011682;28;20195;-63
2022/11/27 10:52:58;;;;;;;;;;;11.30;61.80;;;;;;5013481;28;20153;-64
2022/11/27 10:55:41;;;;;;;106.55;33.67;;;11.30;60.90;;;;;;5011946;28;20009;-64
2022/11/27 10:58:23;;;;;;;124.32;30.02;;;11.30;62.10;;;;;;5011532;28;20442;-64
2022/11/27 11:01:00;;;;;;;105.15;27.23;;;11.30;61.80;;;;;;5023620;28;20100;-65
2022/11/27 11:03:27;;;;;;;115.50;29.77;;;11.30;59.90;;;;;;5031302;28;20114;-62
2022/11/27 11:05:59;;;;;;;;;;;11.40;60.20;;;;;;5013169;28;20189;-63
2022/11/27 11:08:27;;;;;;;94.63;29.40;;;11.40;60.60;;;;;;5011867;28;19972;-64
2022/11/27 11:11:00;;;;;;;95.82;27.77;;;11.40;60.50;;;;;;5010698;28;20090;-65
2022/11/27 11:13:28;;;;;;;103.05;26.90;;;11.40;59.60;;;;;;5011911;28;20155;-65
2022/11/27 11:16:31;;;;;;;107.25;27.95;;;11.50;58.90;;;;;;5011461;28;20105;-65
2022/11/27 11:18:59;;;;;;;87.10;26.42;;;11.50;59.80;;;;;;4931559;29;20159;-65
2022/11/27 11:21:33;;;;;;;80.72;25.30;;;11.40;59.20;;;;;;4931408;29;20104;-61
2022/11/27 11:24:06;;;;;;;101.43;26.77;;;11.40;59.30;;;;;;4937768;29;20094;-63
2022/11/27 11:26:49;;;;;;;100.00;26.10;;;11.40;59.70;;;;;;4947125;29;20136;-64
2022/11/27 11:29:33;;;;;;;93.72;26.67;;;11.40;59.80;;;;;;4931654;29;20564;-64
2022/11/27 11:32:05;;;;;;;94.30;25.58;;;11.40;60.20;;;;;;4930606;29;20091;-64
2022/11/27 11:34:32;;;;;;;86.57;26.35;;;11.30;59.80;;;;;;4931399;29;20464;-64
2022/11/27 11:37:05;;;;;;;88.57;26.08;;;11.30;59.80;;;;;;4931806;29;20085;-62
2022/11/27 11:39:39;;;;;;;101.53;26.75;;;11.30;61.00;;;;;;4930513;29;20084;-64
2022/11/27 11:42:20;;;;;;;107.00;26.40;;;11.30;59.90;;;;;;4931015;28;20088;-62
2022/11/27 11:44:52;;;;;;;92.53;25.70;;;11.20;60.20;;;;;;4931659;29;20112;-62
2022/11/27 11:47:24;;;;;;;100.88;27.83;;;11.20;60.00;;;;;;4930736;29;20729;-64
2022/11/27 11:49:52;;;;;;;106.63;24.80;;;11.10;60.00;;;;;;4930822;29;20096;-61
2022/11/27 11:52:42;;;;;;;95.80;28.02;;;11.20;60.80;;;;;;4927763;29;20196;-64
2022/11/27 11:55:14;;;;;;;96.50;27.70;;;11.10;60.80;;;;;;4968284;28;20085;-63
2022/11/27 11:58:22;;;;;;;86.00;24.95;;;11.00;60.00;;;;;;5010931;28;20081;-65
2022/11/27 12:00:56;;;;;;;76.60;23.83;;;11.00;60.80;;;;;;5013488;28;20086;-64
2022/11/27 12:03:54;;;;;;;78.55;23.90;;;10.90;60.30;;;;;;5010469;28;20110;-64
2022/11/27 12:06:34;;;;;;;93.65;26.75;;;10.80;60.10;;;;;;5010629;28;20216;-64
2022/11/27 12:09:18;;;;;;;87.60;23.90;;;10.80;60.70;;;;;;5010554;28;20089;-65
2022/11/27 12:11:59;;;;;;;86.70;23.83;;;10.80;60.70;;;;;;5010610;28;20101;-65
2022/11/27 12:14:55;;;;;;;86.03;26.25;;;10.70;60.40;;;;;;5010798;28;20081;-66
2022/11/27 12:17:37;;;;;;;80.60;23.48;;;10.70;60.20;;;;;;5022575;28;20074;-60
2022/11/27 12:20:23;;;;;;;77.63;23.95;;;10.60;60.50;;;;;;5010506;28;20071;-64
2022/11/27 12:23:30;;;;;;;84.47;23.08;;;10.70;60.50;;;;;;5011564;28;20078;-63
2022/11/27 12:26:03;;;;;;;87.25;24.08;;;10.60;61.00;;;;;;5010501;28;20706;-66
2022/11/27 12:28:46;;;;;;;74.03;23.55;;;10.50;60.70;;;;;;5010424;28;20562;-62
2022/11/27 12:31:27;;;;;;;80.97;22.30;;;10.50;61.20;;;;;;5010211;28;20100;-64
2022/11/27 12:34:18;;;;;;;84.18;22.27;;;10.40;61.00;;;;;;5010111;28;20093;-62
2022/11/27 12:37:04;;;;;;;69.28;21.45;;;10.40;60.80;;;;;;5010400;28;20531;-65
2022/11/27 12:40:15;;;;;;;78.97;22.02;;;10.40;61.10;;;;;;5010255;28;20094;-63
2022/11/27 12:43:03;;;;;;;86.70;22.67;;;10.40;61.60;;;;;;5009871;28;20182;-65
2022/11/27 12:45:48;;;;;;;78.93;25.35;;;10.20;62.00;;;;;;5009142;28;20599;-63
2022/11/27 12:48:39;;;;;;;95.93;24.05;;;10.20;62.90;;;;;;5010120;28;20097;-65
2022/11/27 12:51:17;;;;;;;84.45;25.00;;;10.30;62.80;;;;;;5010078;28;20455;-64
2022/11/27 12:54:21;;;;;;;102.45;25.67;;;10.30;62.80;;;;;;5010497;28;20431;-64
2022/11/27 12:57:01;;;;;;;83.28;26.98;;;10.30;62.20;;;;;;4969575;28;20098;-65
2022/11/27 12:59:46;;;;;;;80.65;26.50;;;10.40;62.40;;;;;;5010777;28;20527;-64
2022/11/27 13:02:39;;;;;;;88.10;25.90;;;10.40;62.90;;;;;;5022207;28;20078;-67